sensor_id;sensor_type;location;lat;lon;timestamp;P1;durP1;ratioP1;P2;durP2;ratioP2
32760;SDS011;19126;47.472;7.850;2023-05-14T00:01:23;22.73;;;15.10;;
32760;SDS011;19126;47.472;7.850;2023-05-14T00:03:51;21.15;;;14.48;;
32760;SDS011;19126;47.472;7.850;2023-05-14T00:06:18;25.10;;;17.85;;
32760;SDS011;19126;47.472;7.850;2023-05-14T00:08:45;28.05;;;18.92;;
32760;SDS011;19126;47.472;7.850;2023-05-14T00:11:12;27.80;;;20.95;;
32760;SDS011;19126;47.472;7.850;2023-05-14T00:13:40;25.17;;;19.27;;
32760;SDS011;19126;47.472;7.850;2023-05-14T00:16:09;22.23;;;15.20;;
32760;SDS011;19126;47.472;7.850;2023-05-14T00:18:37;18.70;;;14.68;;
32760;SDS011;19126;47.472;7.850;2023-05-14T00:21:04;17.95;;;14.65;;
32760;SDS011;19126;47.472;7.850;2023-05-14T00:23:31;19.40;;;14.45;;
32760;SDS011;19126;47.472;7.850;2023-05-14T00:25:59;23.50;;;15.05;;
32760;SDS011;19126;47.472;7.850;2023-05-14T00:28:26;20.50;;;13.65;;
32760;SDS011;19126;47.472;7.850;2023-05-14T00:30:53;20.92;;;14.10;;
32760;SDS011;19126;47.472;7.850;2023-05-14T00:33:22;15.68;;;13.05;;
32760;SDS011;19126;47.472;7.850;2023-05-14T00:35:49;15.02;;;12.27;;
32760;SDS011;19126;47.472;7.850;2023-05-14T00:38:17;14.90;;;11.85;;
32760;SDS011;19126;47.472;7.850;2023-05-14T00:40:44;19.23;;;13.35;;
32760;SDS011;19126;47.472;7.850;2023-05-14T00:43:15;16.52;;;12.95;;
32760;SDS011;19126;47.472;7.850;2023-05-14T00:45:43;13.80;;;11.70;;
32760;SDS011;19126;47.472;7.850;2023-05-14T00:48:11;13.82;;;12.18;;
32760;SDS011;19126;47.472;7.850;2023-05-14T00:50:41;25.80;;;12.68;;
32760;SDS011;19126;47.472;7.850;2023-05-14T00:53:08;16.02;;;12.15;;
32760;SDS011;19126;47.472;7.850;2023-05-14T00:55:37;17.42;;;12.23;;
32760;SDS011;19126;47.472;7.850;2023-05-14T00:58:06;18.98;;;12.88;;
32760;SDS011;19126;47.472;7.850;2023-05-14T01:03:12;15.77;;;12.38;;
32760;SDS011;19126;47.472;7.850;2023-05-14T01:05:42;16.95;;;13.05;;
32760;SDS011;19126;47.472;7.850;2023-05-14T01:08:26;16.25;;;12.20;;
32760;SDS011;19126;47.472;7.850;2023-05-14T01:11:02;18.60;;;12.13;;
32760;SDS011;19126;47.472;7.850;2023-05-14T01:13:38;19.90;;;12.82;;
32760;SDS011;19126;47.472;7.850;2023-05-14T01:16:21;13.85;;;11.82;;
32760;SDS011;19126;47.472;7.850;2023-05-14T01:18:51;14.55;;;11.38;;
32760;SDS011;19126;47.472;7.850;2023-05-14T01:21:32;14.30;;;10.73;;
32760;SDS011;19126;47.472;7.850;2023-05-14T01:24:05;11.95;;;9.55;;
32760;SDS011;19126;47.472;7.850;2023-05-14T01:26:33;14.63;;;10.90;;
32760;SDS011;19126;47.472;7.850;2023-05-14T01:29:03;11.02;;;9.45;;
32760;SDS011;19126;47.472;7.850;2023-05-14T01:31:39;11.73;;;10.10;;
32760;SDS011;19126;47.472;7.850;2023-05-14T01:34:10;12.80;;;10.23;;
32760;SDS011;19126;47.472;7.850;2023-05-14T01:36:41;11.63;;;8.55;;
32760;SDS011;19126;47.472;7.850;2023-05-14T01:39:09;14.93;;;9.13;;
32760;SDS011;19126;47.472;7.850;2023-05-14T01:41:37;10.32;;;9.05;;
32760;SDS011;19126;47.472;7.850;2023-05-14T01:44:05;13.07;;;8.35;;
32760;SDS011;19126;47.472;7.850;2023-05-14T01:46:33;9.38;;;8.48;;
32760;SDS011;19126;47.472;7.850;2023-05-14T01:49:01;10.25;;;7.93;;
32760;SDS011;19126;47.472;7.850;2023-05-14T01:51:28;10.20;;;8.77;;
32760;SDS011;19126;47.472;7.850;2023-05-14T01:53:57;13.35;;;8.55;;
32760;SDS011;19126;47.472;7.850;2023-05-14T01:56:24;13.82;;;9.48;;
32760;SDS011;19126;47.472;7.850;2023-05-14T01:58:51;11.20;;;8.30;;
32760;SDS011;19126;47.472;7.850;2023-05-14T02:01:19;11.25;;;8.90;;
32760;SDS011;19126;47.472;7.850;2023-05-14T02:03:47;16.58;;;9.13;;
32760;SDS011;19126;47.472;7.850;2023-05-14T02:06:15;10.57;;;8.32;;
32760;SDS011;19126;47.472;7.850;2023-05-14T02:08:42;9.02;;;7.80;;
32760;SDS011;19126;47.472;7.850;2023-05-14T02:11:11;18.42;;;8.55;;
32760;SDS011;19126;47.472;7.850;2023-05-14T02:13:38;10.82;;;7.28;;
32760;SDS011;19126;47.472;7.850;2023-05-14T02:16:06;8.23;;;7.15;;
32760;SDS011;19126;47.472;7.850;2023-05-14T02:18:34;11.20;;;7.13;;
32760;SDS011;19126;47.472;7.850;2023-05-14T02:21:01;8.02;;;7.20;;
32760;SDS011;19126;47.472;7.850;2023-05-14T02:23:28;11.27;;;7.47;;
32760;SDS011;19126;47.472;7.850;2023-05-14T02:25:55;9.18;;;7.03;;
32760;SDS011;19126;47.472;7.850;2023-05-14T02:28:24;12.77;;;8.02;;
32760;SDS011;19126;47.472;7.850;2023-05-14T02:30:51;13.85;;;7.60;;
32760;SDS011;19126;47.472;7.850;2023-05-14T02:33:24;12.13;;;7.72;;
32760;SDS011;19126;47.472;7.850;2023-05-14T02:35:52;10.70;;;8.55;;
32760;SDS011;19126;47.472;7.850;2023-05-14T02:38:19;16.85;;;9.13;;
32760;SDS011;19126;47.472;7.850;2023-05-14T02:40:46;10.48;;;8.40;;
32760;SDS011;19126;47.472;7.850;2023-05-14T02:43:14;10.90;;;8.45;;
32760;SDS011;19126;47.472;7.850;2023-05-14T02:45:42;24.27;;;9.43;;
32760;SDS011;19126;47.472;7.850;2023-05-14T02:48:09;14.80;;;9.35;;
32760;SDS011;19126;47.472;7.850;2023-05-14T02:50:37;15.88;;;11.95;;
32760;SDS011;19126;47.472;7.850;2023-05-14T02:53:04;15.63;;;11.32;;
32760;SDS011;19126;47.472;7.850;2023-05-14T02:55:32;21.90;;;11.60;;
32760;SDS011;19126;47.472;7.850;2023-05-14T02:57:59;38.75;;;13.48;;
32760;SDS011;19126;47.472;7.850;2023-05-14T03:00:26;22.02;;;13.18;;
32760;SDS011;19126;47.472;7.850;2023-05-14T03:02:55;58.95;;;14.35;;
32760;SDS011;19126;47.472;7.850;2023-05-14T03:05:22;21.38;;;12.95;;
32760;SDS011;19126;47.472;7.850;2023-05-14T03:07:50;29.05;;;12.52;;
32760;SDS011;19126;47.472;7.850;2023-05-14T03:10:18;39.00;;;14.10;;
32760;SDS011;19126;47.472;7.850;2023-05-14T03:12:45;16.23;;;12.40;;
32760;SDS011;19126;47.472;7.850;2023-05-14T03:15:13;19.63;;;12.52;;
32760;SDS011;19126;47.472;7.850;2023-05-14T03:17:40;20.65;;;13.70;;
32760;SDS011;19126;47.472;7.850;2023-05-14T03:20:10;82.30;;;15.10;;
32760;SDS011;19126;47.472;7.850;2023-05-14T03:22:38;111.30;;;13.85;;
32760;SDS011;19126;47.472;7.850;2023-05-14T03:25:05;41.60;;;12.30;;
32760;SDS011;19126;47.472;7.850;2023-05-14T03:27:33;117.97;;;14.63;;
32760;SDS011;19126;47.472;7.850;2023-05-14T03:30:01;29.80;;;12.93;;
32760;SDS011;19126;47.472;7.850;2023-05-14T03:32:29;61.72;;;13.48;;
32760;SDS011;19126;47.472;7.850;2023-05-14T03:34:57;30.70;;;12.35;;
32760;SDS011;19126;47.472;7.850;2023-05-14T03:37:26;30.15;;;12.10;;
32760;SDS011;19126;47.472;7.850;2023-05-14T03:39:53;39.40;;;11.80;;
32760;SDS011;19126;47.472;7.850;2023-05-14T03:42:20;38.45;;;11.13;;
32760;SDS011;19126;47.472;7.850;2023-05-14T03:44:47;88.65;;;13.68;;
32760;SDS011;19126;47.472;7.850;2023-05-14T03:47:15;78.50;;;12.52;;
32760;SDS011;19126;47.472;7.850;2023-05-14T03:49:42;13.02;;;10.75;;
32760;SDS011;19126;47.472;7.850;2023-05-14T03:52:09;64.50;;;12.40;;
32760;SDS011;19126;47.472;7.850;2023-05-14T03:54:38;48.63;;;13.18;;
32760;SDS011;19126;47.472;7.850;2023-05-14T03:57:05;218.88;;;14.57;;
32760;SDS011;19126;47.472;7.850;2023-05-14T03:59:32;28.38;;;13.02;;
32760;SDS011;19126;47.472;7.850;2023-05-14T04:02:00;13.60;;;10.70;;
32760;SDS011;19126;47.472;7.850;2023-05-14T04:04:27;12.93;;;10.57;;
32760;SDS011;19126;47.472;7.850;2023-05-14T04:06:54;21.48;;;11.32;;
32760;SDS011;19126;47.472;7.850;2023-05-14T04:09:21;21.08;;;10.40;;
32760;SDS011;19126;47.472;7.850;2023-05-14T04:11:50;31.75;;;13.20;;
32760;SDS011;19126;47.472;7.850;2023-05-14T04:14:17;32.63;;;12.68;;
32760;SDS011;19126;47.472;7.850;2023-05-14T04:16:44;14.15;;;11.38;;
32760;SDS011;19126;47.472;7.850;2023-05-14T04:19:12;48.63;;;11.90;;
32760;SDS011;19126;47.472;7.850;2023-05-14T04:21:39;14.90;;;11.63;;
32760;SDS011;19126;47.472;7.850;2023-05-14T04:24:06;29.13;;;12.68;;
32760;SDS011;19126;47.472;7.850;2023-05-14T04:26:34;32.33;;;13.80;;
32760;SDS011;19126;47.472;7.850;2023-05-14T04:29:02;84.80;;;12.60;;
32760;SDS011;19126;47.472;7.850;2023-05-14T04:31:30;36.80;;;12.38;;
32760;SDS011;19126;47.472;7.850;2023-05-14T04:33:58;126.13;;;13.93;;
32760;SDS011;19126;47.472;7.850;2023-05-14T04:36:25;52.13;;;12.75;;
32760;SDS011;19126;47.472;7.850;2023-05-14T04:38:53;73.97;;;12.27;;
32760;SDS011;19126;47.472;7.850;2023-05-14T04:41:20;30.70;;;11.43;;
32760;SDS011;19126;47.472;7.850;2023-05-14T04:43:48;34.92;;;13.18;;
32760;SDS011;19126;47.472;7.850;2023-05-14T04:46:17;14.18;;;10.18;;
32760;SDS011;19126;47.472;7.850;2023-05-14T04:48:44;78.40;;;13.25;;
32760;SDS011;19126;47.472;7.850;2023-05-14T04:51:12;43.63;;;11.50;;
32760;SDS011;19126;47.472;7.850;2023-05-14T04:53:39;14.68;;;13.00;;
32760;SDS011;19126;47.472;7.850;2023-05-14T04:56:07;23.08;;;14.18;;
32760;SDS011;19126;47.472;7.850;2023-05-14T04:58:35;28.20;;;14.45;;
32760;SDS011;19126;47.472;7.850;2023-05-14T05:01:02;29.38;;;14.93;;
32760;SDS011;19126;47.472;7.850;2023-05-14T05:03:32;17.40;;;13.35;;
32760;SDS011;19126;47.472;7.850;2023-05-14T05:05:59;46.38;;;14.50;;
32760;SDS011;19126;47.472;7.850;2023-05-14T05:08:27;38.35;;;14.50;;
32760;SDS011;19126;47.472;7.850;2023-05-14T05:10:54;28.63;;;15.57;;
32760;SDS011;19126;47.472;7.850;2023-05-14T05:13:21;21.20;;;14.18;;
32760;SDS011;19126;47.472;7.850;2023-05-14T05:15:48;46.47;;;15.10;;
32760;SDS011;19126;47.472;7.850;2023-05-14T05:18:16;35.50;;;14.95;;
32760;SDS011;19126;47.472;7.850;2023-05-14T05:20:44;80.43;;;17.20;;
32760;SDS011;19126;47.472;7.850;2023-05-14T05:23:12;29.83;;;14.25;;
32760;SDS011;19126;47.472;7.850;2023-05-14T05:25:39;34.33;;;15.25;;
32760;SDS011;19126;47.472;7.850;2023-05-14T05:28:06;20.90;;;14.50;;
32760;SDS011;19126;47.472;7.850;2023-05-14T05:30:33;35.78;;;14.18;;
32760;SDS011;19126;47.472;7.850;2023-05-14T05:33:01;19.10;;;11.80;;
32760;SDS011;19126;47.472;7.850;2023-05-14T05:35:28;33.58;;;11.18;;
32760;SDS011;19126;47.472;7.850;2023-05-14T05:37:57;43.38;;;11.52;;
32760;SDS011;19126;47.472;7.850;2023-05-14T05:40:25;15.57;;;11.27;;
32760;SDS011;19126;47.472;7.850;2023-05-14T05:42:52;10.57;;;8.70;;
32760;SDS011;19126;47.472;7.850;2023-05-14T05:45:19;9.23;;;8.13;;
32760;SDS011;19126;47.472;7.850;2023-05-14T05:47:47;13.68;;;9.07;;
32760;SDS011;19126;47.472;7.850;2023-05-14T05:50:14;10.27;;;9.10;;
32760;SDS011;19126;47.472;7.850;2023-05-14T05:52:41;11.70;;;9.18;;
32760;SDS011;19126;47.472;7.850;2023-05-14T05:55:10;11.90;;;8.27;;
32760;SDS011;19126;47.472;7.850;2023-05-14T05:57:37;10.75;;;9.10;;
32760;SDS011;19126;47.472;7.850;2023-05-14T06:00:05;18.25;;;13.43;;
32760;SDS011;19126;47.472;7.850;2023-05-14T06:02:38;31.05;;;22.05;;
32760;SDS011;19126;47.472;7.850;2023-05-14T06:05:07;22.67;;;14.73;;
32760;SDS011;19126;47.472;7.850;2023-05-14T06:07:36;16.70;;;12.40;;
32760;SDS011;19126;47.472;7.850;2023-05-14T06:10:04;16.38;;;12.95;;
32760;SDS011;19126;47.472;7.850;2023-05-14T06:12:34;17.17;;;13.70;;
32760;SDS011;19126;47.472;7.850;2023-05-14T06:15:01;16.38;;;13.63;;
32760;SDS011;19126;47.472;7.850;2023-05-14T06:17:29;16.73;;;12.70;;
32760;SDS011;19126;47.472;7.850;2023-05-14T06:19:56;17.65;;;13.23;;
32760;SDS011;19126;47.472;7.850;2023-05-14T06:22:24;15.52;;;12.63;;
32760;SDS011;19126;47.472;7.850;2023-05-14T06:24:51;18.85;;;14.52;;
32760;SDS011;19126;47.472;7.850;2023-05-14T06:27:18;18.83;;;14.18;;
32760;SDS011;19126;47.472;7.850;2023-05-14T06:29:47;17.90;;;13.45;;
32760;SDS011;19126;47.472;7.850;2023-05-14T06:32:14;21.70;;;12.23;;
32760;SDS011;19126;47.472;7.850;2023-05-14T06:34:41;17.05;;;13.63;;
32760;SDS011;19126;47.472;7.850;2023-05-14T06:37:09;22.15;;;13.98;;
32760;SDS011;19126;47.472;7.850;2023-05-14T06:39:36;22.63;;;15.90;;
32760;SDS011;19126;47.472;7.850;2023-05-14T06:42:04;21.83;;;17.60;;
32760;SDS011;19126;47.472;7.850;2023-05-14T06:44:32;26.10;;;19.67;;
32760;SDS011;19126;47.472;7.850;2023-05-14T06:47:01;29.40;;;19.92;;
32760;SDS011;19126;47.472;7.850;2023-05-14T06:49:30;29.50;;;20.13;;
32760;SDS011;19126;47.472;7.850;2023-05-14T06:51:57;27.05;;;20.15;;
32760;SDS011;19126;47.472;7.850;2023-05-14T06:54:25;29.83;;;20.55;;
32760;SDS011;19126;47.472;7.850;2023-05-14T06:56:52;27.17;;;20.77;;
32760;SDS011;19126;47.472;7.850;2023-05-14T06:59:19;30.73;;;21.55;;
32760;SDS011;19126;47.472;7.850;2023-05-14T07:01:47;36.00;;;21.55;;
32760;SDS011;19126;47.472;7.850;2023-05-14T07:04:15;25.55;;;20.10;;
32760;SDS011;19126;47.472;7.850;2023-05-14T07:06:42;23.98;;;18.15;;
32760;SDS011;19126;47.472;7.850;2023-05-14T07:09:10;25.10;;;18.70;;
32760;SDS011;19126;47.472;7.850;2023-05-14T07:11:37;23.85;;;18.45;;
32760;SDS011;19126;47.472;7.850;2023-05-14T07:14:04;23.42;;;18.38;;
32760;SDS011;19126;47.472;7.850;2023-05-14T07:16:32;26.98;;;19.23;;
32760;SDS011;19126;47.472;7.850;2023-05-14T07:18:59;26.38;;;18.38;;
32760;SDS011;19126;47.472;7.850;2023-05-14T07:21:28;23.52;;;16.75;;
32760;SDS011;19126;47.472;7.850;2023-05-14T07:23:55;24.98;;;16.77;;
32760;SDS011;19126;47.472;7.850;2023-05-14T07:26:23;21.95;;;18.08;;
32760;SDS011;19126;47.472;7.850;2023-05-14T07:28:50;21.55;;;15.93;;
32760;SDS011;19126;47.472;7.850;2023-05-14T07:31:17;25.40;;;18.02;;
32760;SDS011;19126;47.472;7.850;2023-05-14T07:33:44;23.17;;;17.33;;
32760;SDS011;19126;47.472;7.850;2023-05-14T07:36:12;21.63;;;17.45;;
32760;SDS011;19126;47.472;7.850;2023-05-14T07:38:41;28.05;;;17.20;;
32760;SDS011;19126;47.472;7.850;2023-05-14T07:41:08;20.95;;;17.13;;
32760;SDS011;19126;47.472;7.850;2023-05-14T07:43:36;19.58;;;16.08;;
32760;SDS011;19126;47.472;7.850;2023-05-14T07:46:04;26.05;;;18.92;;
32760;SDS011;19126;47.472;7.850;2023-05-14T07:48:31;21.88;;;16.90;;
32760;SDS011;19126;47.472;7.850;2023-05-14T07:50:59;23.13;;;17.60;;
32760;SDS011;19126;47.472;7.850;2023-05-14T07:53:26;21.75;;;16.50;;
32760;SDS011;19126;47.472;7.850;2023-05-14T07:55:55;24.42;;;16.55;;
32760;SDS011;19126;47.472;7.850;2023-05-14T07:58:24;24.63;;;16.30;;
32760;SDS011;19126;47.472;7.850;2023-05-14T08:00:51;22.00;;;15.60;;
32760;SDS011;19126;47.472;7.850;2023-05-14T08:03:19;21.17;;;16.70;;
32760;SDS011;19126;47.472;7.850;2023-05-14T08:05:46;20.65;;;16.38;;
32760;SDS011;19126;47.472;7.850;2023-05-14T08:08:13;17.17;;;15.05;;
32760;SDS011;19126;47.472;7.850;2023-05-14T08:10:41;22.88;;;16.45;;
32760;SDS011;19126;47.472;7.850;2023-05-14T08:13:09;19.40;;;14.38;;
32760;SDS011;19126;47.472;7.850;2023-05-14T08:15:37;23.45;;;15.48;;
32760;SDS011;19126;47.472;7.850;2023-05-14T08:18:04;23.30;;;15.88;;
32760;SDS011;19126;47.472;7.850;2023-05-14T08:20:31;19.58;;;15.02;;
32760;SDS011;19126;47.472;7.850;2023-05-14T08:22:58;23.02;;;16.20;;
32760;SDS011;19126;47.472;7.850;2023-05-14T08:25:26;19.90;;;15.52;;
32760;SDS011;19126;47.472;7.850;2023-05-14T08:27:53;19.25;;;14.48;;
32760;SDS011;19126;47.472;7.850;2023-05-14T08:30:22;17.05;;;14.20;;
32760;SDS011;19126;47.472;7.850;2023-05-14T08:32:49;14.98;;;12.65;;
32760;SDS011;19126;47.472;7.850;2023-05-14T08:35:16;16.00;;;12.82;;
32760;SDS011;19126;47.472;7.850;2023-05-14T08:37:44;15.38;;;13.25;;
32760;SDS011;19126;47.472;7.850;2023-05-14T08:40:11;15.80;;;13.82;;
32760;SDS011;19126;47.472;7.850;2023-05-14T08:42:39;21.48;;;12.93;;
32760;SDS011;19126;47.472;7.850;2023-05-14T08:45:10;21.25;;;14.25;;
32760;SDS011;19126;47.472;7.850;2023-05-14T08:47:44;19.50;;;15.07;;
32760;SDS011;19126;47.472;7.850;2023-05-14T08:50:14;15.95;;;11.98;;
32760;SDS011;19126;47.472;7.850;2023-05-14T08:52:44;18.40;;;13.90;;
32760;SDS011;19126;47.472;7.850;2023-05-14T08:55:11;16.98;;;13.73;;
32760;SDS011;19126;47.472;7.850;2023-05-14T08:57:39;18.85;;;15.93;;
32760;SDS011;19126;47.472;7.850;2023-05-14T09:00:07;21.92;;;14.88;;
32760;SDS011;19126;47.472;7.850;2023-05-14T09:02:36;18.85;;;14.85;;
32760;SDS011;19126;47.472;7.850;2023-05-14T09:05:08;18.83;;;15.25;;
32760;SDS011;19126;47.472;7.850;2023-05-14T09:07:36;16.38;;;14.45;;
32760;SDS011;19126;47.472;7.850;2023-05-14T09:10:04;17.80;;;13.90;;
32760;SDS011;19126;47.472;7.850;2023-05-14T09:12:33;18.80;;;14.10;;
32760;SDS011;19126;47.472;7.850;2023-05-14T09:15:00;18.73;;;13.77;;
32760;SDS011;19126;47.472;7.850;2023-05-14T09:17:28;17.98;;;14.18;;
32760;SDS011;19126;47.472;7.850;2023-05-14T09:19:56;17.00;;;14.00;;
32760;SDS011;19126;47.472;7.850;2023-05-14T09:22:25;16.80;;;14.00;;
32760;SDS011;19126;47.472;7.850;2023-05-14T09:27:31;20.48;;;14.15;;
32760;SDS011;19126;47.472;7.850;2023-05-14T09:30:06;19.00;;;14.25;;
32760;SDS011;19126;47.472;7.850;2023-05-14T09:32:36;16.52;;;13.68;;
32760;SDS011;19126;47.472;7.850;2023-05-14T09:35:09;20.58;;;14.68;;
32760;SDS011;19126;47.472;7.850;2023-05-14T09:37:41;21.33;;;15.98;;
32760;SDS011;19126;47.472;7.850;2023-05-14T09:40:10;18.38;;;14.85;;
32760;SDS011;19126;47.472;7.850;2023-05-14T09:42:38;18.80;;;14.73;;
32760;SDS011;19126;47.472;7.850;2023-05-14T09:45:06;18.13;;;14.63;;
32760;SDS011;19126;47.472;7.850;2023-05-14T09:47:35;14.30;;;12.18;;
32760;SDS011;19126;47.472;7.850;2023-05-14T09:50:03;18.42;;;12.35;;
32760;SDS011;19126;47.472;7.850;2023-05-14T09:52:31;13.80;;;12.10;;
32760;SDS011;19126;47.472;7.850;2023-05-14T09:55:00;13.80;;;11.45;;
32760;SDS011;19126;47.472;7.850;2023-05-14T09:57:28;16.33;;;11.32;;
32760;SDS011;19126;47.472;7.850;2023-05-14T09:59:55;12.98;;;10.63;;
32760;SDS011;19126;47.472;7.850;2023-05-14T10:02:23;12.05;;;10.23;;
32760;SDS011;19126;47.472;7.850;2023-05-14T10:04:53;11.95;;;9.80;;
32760;SDS011;19126;47.472;7.850;2023-05-14T10:07:26;10.98;;;9.27;;
32760;SDS011;19126;47.472;7.850;2023-05-14T10:10:06;11.35;;;9.57;;
32760;SDS011;19126;47.472;7.850;2023-05-14T10:12:37;14.40;;;10.18;;
32760;SDS011;19126;47.472;7.850;2023-05-14T10:15:08;9.68;;;8.05;;
32760;SDS011;19126;47.472;7.850;2023-05-14T10:17:43;8.32;;;7.10;;
32760;SDS011;19126;47.472;7.850;2023-05-14T10:20:17;9.02;;;6.72;;
32760;SDS011;19126;47.472;7.850;2023-05-14T10:22:45;6.55;;;5.47;;
32760;SDS011;19126;47.472;7.850;2023-05-14T10:25:14;8.65;;;5.60;;
32760;SDS011;19126;47.472;7.850;2023-05-14T10:27:42;10.70;;;8.93;;
32760;SDS011;19126;47.472;7.850;2023-05-14T10:30:10;16.00;;;13.55;;
32760;SDS011;19126;47.472;7.850;2023-05-14T10:32:38;7.10;;;5.07;;
32760;SDS011;19126;47.472;7.850;2023-05-14T10:35:14;5.32;;;4.82;;
32760;SDS011;19126;47.472;7.850;2023-05-14T10:37:44;9.10;;;5.57;;
32760;SDS011;19126;47.472;7.850;2023-05-14T10:40:12;9.50;;;8.60;;
32760;SDS011;19126;47.472;7.850;2023-05-14T10:42:42;8.30;;;5.05;;
32760;SDS011;19126;47.472;7.850;2023-05-14T10:45:12;6.55;;;3.88;;
32760;SDS011;19126;47.472;7.850;2023-05-14T10:47:41;8.18;;;4.20;;
32760;SDS011;19126;47.472;7.850;2023-05-14T10:50:11;4.22;;;3.83;;
32760;SDS011;19126;47.472;7.850;2023-05-14T10:52:41;4.75;;;3.42;;
32760;SDS011;19126;47.472;7.850;2023-05-14T10:55:11;4.15;;;3.70;;
32760;SDS011;19126;47.472;7.850;2023-05-14T10:57:42;7.85;;;3.92;;
32760;SDS011;19126;47.472;7.850;2023-05-14T11:00:12;4.28;;;3.80;;
32760;SDS011;19126;47.472;7.850;2023-05-14T11:02:41;5.03;;;4.43;;
32760;SDS011;19126;47.472;7.850;2023-05-14T11:05:11;4.93;;;3.33;;
32760;SDS011;19126;47.472;7.850;2023-05-14T11:07:41;4.68;;;4.15;;
32760;SDS011;19126;47.472;7.850;2023-05-14T11:10:12;4.95;;;4.10;;
32760;SDS011;19126;47.472;7.850;2023-05-14T11:12:42;4.13;;;3.55;;
32760;SDS011;19126;47.472;7.850;2023-05-14T11:15:12;3.38;;;3.08;;
32760;SDS011;19126;47.472;7.850;2023-05-14T11:17:41;3.97;;;3.40;;
32760;SDS011;19126;47.472;7.850;2023-05-14T11:20:11;5.18;;;4.10;;
32760;SDS011;19126;47.472;7.850;2023-05-14T11:22:39;5.32;;;4.13;;
32760;SDS011;19126;47.472;7.850;2023-05-14T11:25:08;5.25;;;4.10;;
32760;SDS011;19126;47.472;7.850;2023-05-14T11:27:38;5.72;;;4.95;;
32760;SDS011;19126;47.472;7.850;2023-05-14T11:30:11;6.55;;;5.65;;
32760;SDS011;19126;47.472;7.850;2023-05-14T11:32:40;3.75;;;3.42;;
32760;SDS011;19126;47.472;7.850;2023-05-14T11:35:11;6.20;;;4.53;;
32760;SDS011;19126;47.472;7.850;2023-05-14T11:37:39;9.20;;;7.03;;
32760;SDS011;19126;47.472;7.850;2023-05-14T11:40:07;21.40;;;16.90;;
32760;SDS011;19126;47.472;7.850;2023-05-14T11:42:41;11.18;;;8.05;;
32760;SDS011;19126;47.472;7.850;2023-05-14T11:45:09;6.88;;;3.70;;
32760;SDS011;19126;47.472;7.850;2023-05-14T11:47:37;6.85;;;3.33;;
32760;SDS011;19126;47.472;7.850;2023-05-14T11:50:06;5.57;;;4.90;;
32760;SDS011;19126;47.472;7.850;2023-05-14T11:52:36;10.75;;;7.55;;
32760;SDS011;19126;47.472;7.850;2023-05-14T11:55:07;10.68;;;7.85;;
32760;SDS011;19126;47.472;7.850;2023-05-14T12:00:08;23.52;;;16.13;;
32760;SDS011;19126;47.472;7.850;2023-05-14T12:02:40;11.27;;;8.93;;
32760;SDS011;19126;47.472;7.850;2023-05-14T12:05:11;11.48;;;8.95;;
32760;SDS011;19126;47.472;7.850;2023-05-14T12:07:38;25.45;;;14.88;;
32760;SDS011;19126;47.472;7.850;2023-05-14T12:10:06;36.60;;;27.38;;
32760;SDS011;19126;47.472;7.850;2023-05-14T12:12:37;9.03;;;6.83;;
32760;SDS011;19126;47.472;7.850;2023-05-14T12:15:10;7.18;;;5.80;;
32760;SDS011;19126;47.472;7.850;2023-05-14T12:17:39;14.15;;;10.00;;
32760;SDS011;19126;47.472;7.850;2023-05-14T12:20:07;14.77;;;10.52;;
32760;SDS011;19126;47.472;7.850;2023-05-14T12:22:36;5.63;;;4.60;;
32760;SDS011;19126;47.472;7.850;2023-05-14T12:25:08;5.18;;;3.50;;
32760;SDS011;19126;47.472;7.850;2023-05-14T12:27:38;4.90;;;2.90;;
32760;SDS011;19126;47.472;7.850;2023-05-14T12:30:06;5.10;;;3.00;;
32760;SDS011;19126;47.472;7.850;2023-05-14T12:32:36;4.43;;;3.70;;
32760;SDS011;19126;47.472;7.850;2023-05-14T12:35:09;3.38;;;2.90;;
32760;SDS011;19126;47.472;7.850;2023-05-14T12:37:36;4.55;;;2.85;;
32760;SDS011;19126;47.472;7.850;2023-05-14T12:40:04;4.82;;;2.50;;
32760;SDS011;19126;47.472;7.850;2023-05-14T12:42:33;2.35;;;2.15;;
32760;SDS011;19126;47.472;7.850;2023-05-14T12:45:03;5.03;;;2.42;;
32760;SDS011;19126;47.472;7.850;2023-05-14T12:47:32;5.05;;;2.80;;
32760;SDS011;19126;47.472;7.850;2023-05-14T12:50:01;2.90;;;2.63;;
32760;SDS011;19126;47.472;7.850;2023-05-14T12:52:29;2.83;;;2.63;;
32760;SDS011;19126;47.472;7.850;2023-05-14T12:54:56;3.70;;;3.05;;
32760;SDS011;19126;47.472;7.850;2023-05-14T12:57:23;3.08;;;2.78;;
32760;SDS011;19126;47.472;7.850;2023-05-14T12:59:51;2.72;;;2.53;;
32760;SDS011;19126;47.472;7.850;2023-05-14T13:02:19;2.97;;;2.50;;
32760;SDS011;19126;47.472;7.850;2023-05-14T13:04:46;5.72;;;2.50;;
32760;SDS011;19126;47.472;7.850;2023-05-14T13:09:50;2.75;;;1.75;;
32760;SDS011;19126;47.472;7.850;2023-05-14T13:12:18;1.52;;;1.42;;
32760;SDS011;19126;47.472;7.850;2023-05-14T13:14:45;3.25;;;2.45;;
32760;SDS011;19126;47.472;7.850;2023-05-14T13:17:12;2.50;;;2.30;;
32760;SDS011;19126;47.472;7.850;2023-05-14T13:19:40;3.58;;;2.42;;
32760;SDS011;19126;47.472;7.850;2023-05-14T13:22:07;4.97;;;2.38;;
32760;SDS011;19126;47.472;7.850;2023-05-14T13:24:34;2.40;;;2.20;;
32760;SDS011;19126;47.472;7.850;2023-05-14T13:27:03;2.17;;;1.73;;
32760;SDS011;19126;47.472;7.850;2023-05-14T13:29:31;2.15;;;1.90;;
32760;SDS011;19126;47.472;7.850;2023-05-14T13:31:58;4.03;;;2.72;;
32760;SDS011;19126;47.472;7.850;2023-05-14T13:34:25;3.80;;;2.67;;
32760;SDS011;19126;47.472;7.850;2023-05-14T13:36:52;6.20;;;3.28;;
32760;SDS011;19126;47.472;7.850;2023-05-14T13:39:20;3.72;;;2.83;;
32760;SDS011;19126;47.472;7.850;2023-05-14T13:41:51;5.13;;;3.05;;
32760;SDS011;19126;47.472;7.850;2023-05-14T13:44:21;4.35;;;3.13;;
32760;SDS011;19126;47.472;7.850;2023-05-14T13:46:48;8.10;;;3.15;;
32760;SDS011;19126;47.472;7.850;2023-05-14T13:49:16;3.88;;;2.80;;
32760;SDS011;19126;47.472;7.850;2023-05-14T13:51:43;3.03;;;2.65;;
32760;SDS011;19126;47.472;7.850;2023-05-14T13:54:10;5.38;;;3.10;;
32760;SDS011;19126;47.472;7.850;2023-05-14T13:56:38;3.00;;;2.55;;
32760;SDS011;19126;47.472;7.850;2023-05-14T13:59:05;7.95;;;2.92;;
32760;SDS011;19126;47.472;7.850;2023-05-14T14:01:34;4.72;;;2.90;;
32760;SDS011;19126;47.472;7.850;2023-05-14T14:04:01;5.78;;;3.60;;
32760;SDS011;19126;47.472;7.850;2023-05-14T14:06:29;3.72;;;3.40;;
32760;SDS011;19126;47.472;7.850;2023-05-14T14:08:57;3.13;;;2.83;;
32760;SDS011;19126;47.472;7.850;2023-05-14T14:11:24;4.13;;;3.17;;
32760;SDS011;19126;47.472;7.850;2023-05-14T14:13:52;6.07;;;2.25;;
32760;SDS011;19126;47.472;7.850;2023-05-14T14:16:19;4.78;;;2.63;;
32760;SDS011;19126;47.472;7.850;2023-05-14T14:18:48;2.42;;;2.20;;
32760;SDS011;19126;47.472;7.850;2023-05-14T14:21:15;3.05;;;2.70;;
32760;SDS011;19126;47.472;7.850;2023-05-14T14:23:45;2.47;;;2.28;;
32760;SDS011;19126;47.472;7.850;2023-05-14T14:26:12;7.18;;;2.65;;
32760;SDS011;19126;47.472;7.850;2023-05-14T14:28:39;2.88;;;2.58;;
32760;SDS011;19126;47.472;7.850;2023-05-14T14:31:07;2.63;;;2.40;;
32760;SDS011;19126;47.472;7.850;2023-05-14T14:33:34;5.32;;;2.58;;
32760;SDS011;19126;47.472;7.850;2023-05-14T14:36:03;3.25;;;2.50;;
32760;SDS011;19126;47.472;7.850;2023-05-14T14:38:31;6.55;;;2.13;;
32760;SDS011;19126;47.472;7.850;2023-05-14T14:40:58;3.00;;;2.40;;
32760;SDS011;19126;47.472;7.850;2023-05-14T14:43:27;8.02;;;3.17;;
32760;SDS011;19126;47.472;7.850;2023-05-14T14:45:54;14.55;;;3.03;;
32760;SDS011;19126;47.472;7.850;2023-05-14T14:48:22;5.35;;;2.67;;